Time;durP1;ratioP1;P1;durP2;ratioP2;P2;SDS_P1;SDS_P2;PMS_P1;PMS_P2;Temp;Humidity;BMP_temperature;BMP_pressure;BME280_temperature;BME280_humidity;BME280_pressure;Samples;Min_cycle;Max_cycle;Signal;HPM_P1;HPM_P2
2024/01/06 00:01:26;;;;;;;11.20;6.97;;;2.20;99.90;;;;;;4997874;28;20124;-90
2024/01/06 00:03:51;;;;;;;12.00;7.45;;;3.10;99.90;;;;;;4990080;28;20029;-90
2024/01/06 00:06:17;;;;;;;13.43;6.95;;;2.00;99.90;;;;;;5004427;28;20153;-89
2024/01/06 00:08:42;;;;;;;11.93;7.35;;;2.70;99.90;;;;;;4990028;28;20050;-90
2024/01/06 00:11:09;;;;;;;12.30;7.10;;;1.90;99.90;;;;;;5005794;28;20066;-90
2024/01/06 00:13:36;;;;;;;12.43;7.38;;;3.20;99.90;;;;;;4971265;28;20045;-90
2024/01/06 00:16:01;;;;;;;11.90;7.15;;;3.00;99.90;;;;;;5022778;28;20564;-90
2024/01/06 00:18:27;;;;;;;11.65;6.82;;;1.90;99.90;;;;;;5011769;28;20050;-90
2024/01/06 00:20:53;;;;;;;12.23;7.63;;;1.80;99.90;;;;;;5017586;28;20064;-90
2024/01/06 00:23:20;;;;;;;12.32;7.60;;;3.20;99.90;;;;;;4989242;28;20123;-89
2024/01/06 00:25:45;;;;;;;11.90;7.22;;;2.00;99.90;;;;;;4975426;28;20089;-90
2024/01/06 00:28:11;;;;;;;11.43;6.80;;;3.10;99.90;;;;;;4972634;28;20045;-89
2024/01/06 00:30:37;;;;;;;11.50;6.65;;;1.70;99.90;;;;;;4982947;28;20042;-90
2024/01/06 00:33:03;;;;;;;11.32;6.60;;;2.00;99.90;;;;;;5012822;28;20056;-90
2024/01/06 00:35:29;;;;;;;10.90;6.30;;;1.80;99.90;;;;;;4958555;28;20046;-89
2024/01/06 00:37:55;;;;;;;11.77;6.68;;;3.40;99.90;;;;;;5002694;28;20053;-89
2024/01/06 00:40:21;;;;;;;13.13;7.50;;;1.80;99.90;;;;;;4989507;28;20042;-88
2024/01/06 00:42:46;;;;;;;12.05;6.85;;;3.60;99.90;;;;;;4975170;28;20049;-90
2024/01/06 00:45:12;;;;;;;11.57;6.82;;;2.80;99.90;;;;;;4987287;28;20030;-90
2024/01/06 00:47:38;;;;;;;11.80;7.10;;;1.90;99.90;;;;;;5003922;28;20384;-89
2024/01/06 00:50:04;;;;;;;13.50;7.25;;;2.00;99.90;;;;;;4991044;28;20124;-89
2024/01/06 00:52:30;;;;;;;12.02;7.25;;;1.90;99.90;;;;;;5005235;28;20038;-90
2024/01/06 00:54:55;;;;;;;11.88;7.38;;;2.00;99.90;;;;;;4989290;28;20049;-90
2024/01/06 00:57:24;;;;;;;13.85;7.32;;;1.70;99.90;;;;;;4987761;28;20045;-90
2024/01/06 00:59:50;;;;;;;12.15;7.30;;;1.70;99.90;;;;;;4986766;28;20419;-89
2024/01/06 01:02:16;;;;;;;12.57;7.25;;;3.30;99.90;;;;;;4974960;28;20046;-89
2024/01/06 01:04:41;;;;;;;12.88;7.30;;;2.00;99.90;;;;;;5008153;28;20036;-90
2024/01/06 01:07:07;;;;;;;12.50;7.53;;;2.00;99.90;;;;;;5005023;28;20840;-89
2024/01/06 01:09:34;;;;;;;12.45;7.35;;;1.70;99.90;;;;;;5000723;28;20042;-90
2024/01/06 01:12:00;;;;;;;11.38;7.00;;;1.90;99.90;;;;;;5020405;28;20081;-90
2024/01/06 01:14:25;;;;;;;13.93;6.68;;;3.30;99.90;;;;;;4987233;28;20514;-90
2024/01/06 01:16:51;;;;;;;11.70;6.95;;;1.80;99.90;;;;;;4973082;28;20041;-90
2024/01/06 01:19:17;;;;;;;12.88;7.00;;;1.70;99.90;;;;;;4971193;28;20046;-89
2024/01/06 01:21:42;;;;;;;11.57;6.35;;;2.90;99.90;;;;;;5004473;28;20129;-89
2024/01/06 01:24:08;;;;;;;12.98;6.63;;;2.50;99.90;;;;;;4972573;28;20505;-89
2024/01/06 01:26:34;;;;;;;11.55;6.63;;;2.60;99.90;;;;;;4983228;28;20058;-90
2024/01/06 01:29:00;;;;;;;11.65;6.38;;;1.60;99.90;;;;;;4972822;28;20038;-89
2024/01/06 01:31:25;;;;;;;11.82;6.80;;;2.60;99.90;;;;;;4987919;28;20634;-88
2024/01/06 01:33:51;;;;;;;11.60;6.20;;;1.50;99.90;;;;;;5003484;28;20054;-89
2024/01/06 01:36:18;;;;;;;13.02;6.65;;;1.80;99.90;;;;;;4972056;28;20490;-89
2024/01/06 01:38:43;;;;;;;11.07;5.82;;;1.80;99.90;;;;;;5004658;28;20103;-89
2024/01/06 01:41:09;;;;;;;11.48;6.10;;;2.90;99.90;;;;;;4970967;28;20042;-89
2024/01/06 01:43:35;;;;;;;12.30;7.05;;;1.70;99.90;;;;;;4988322;28;20686;-89
2024/01/06 01:46:01;;;;;;;11.82;6.65;;;3.30;99.90;;;;;;4988240;28;20120;-89
2024/01/06 01:48:27;;;;;;;11.13;6.45;;;1.50;99.90;;;;;;5004223;28;20048;-89
2024/01/06 01:50:54;;;;;;;12.77;6.45;;;1.80;99.90;;;;;;4986096;28;20419;-89
2024/01/06 01:53:20;;;;;;;12.10;6.38;;;1.80;99.90;;;;;;4973714;28;20041;-90
2024/01/06 01:55:47;;;;;;;12.43;6.53;;;1.50;99.90;;;;;;4987971;28;20053;-90
2024/01/06 01:58:15;;;;;;;12.43;7.00;;;1.70;99.90;;;;;;4969761;28;20056;-89
2024/01/06 02:00:41;;;;;;;10.98;6.18;;;1.60;99.90;;;;;;5035770;28;20045;-90
2024/01/06 02:03:09;;;;;;;11.02;6.22;;;3.00;99.90;;;;;;5000478;28;20046;-90
2024/01/06 02:05:35;;;;;;;11.45;6.68;;;1.60;99.90;;;;;;5002203;28;20053;-90
2024/01/06 02:08:01;;;;;;;11.07;6.13;;;1.50;99.90;;;;;;4974990;28;20393;-90
2024/01/06 02:10:27;;;;;;;11.93;6.40;;;;;;;;;;4987680;28;20038;-90
2024/01/06 02:12:53;;;;;;;11.88;6.78;;;1.70;99.90;;;;;;5018317;28;20383;-90
2024/01/06 02:15:19;;;;;;;12.70;6.55;;;1.70;99.90;;;;;;4987372;28;20037;-90
2024/01/06 02:17:45;;;;;;;11.23;6.57;;;1.70;99.90;;;;;;4987369;28;20416;-89
2024/01/06 02:20:12;;;;;;;12.43;6.65;;;1.60;99.90;;;;;;4971088;28;20042;-90
2024/01/06 02:22:38;;;;;;;12.73;7.30;;;3.20;99.90;;;;;;4985646;28;20077;-89
2024/01/06 02:25:12;;;;;;;11.82;6.28;;;1.70;99.90;;;;;;4976363;28;20069;-90
2024/01/06 02:27:38;;;;;;;11.07;6.00;;;1.60;99.90;;;;;;5006987;28;20411;-90
2024/01/06 02:30:05;;;;;;;11.90;6.43;;;3.10;99.90;;;;;;4974771;28;20053;-89
2024/01/06 02:32:30;;;;;;;11.63;6.20;;;1.70;99.90;;;;;;4955886;28;20053;-90
2024/01/06 02:34:56;;;;;;;11.43;6.68;;;1.40;99.90;;;;;;5018846;28;20049;-90
2024/01/06 02:37:22;;;;;;;11.80;6.72;;;1.70;99.90;;;;;;5004155;28;20054;-89
2024/01/06 02:39:47;;;;;;;12.13;7.35;;;1.50;99.90;;;;;;5004330;28;20421;-90
2024/01/06 02:42:13;;;;;;;11.55;6.57;;;1.40;99.90;;;;;;4990021;28;20526;-89
2024/01/06 02:44:38;;;;;;;12.45;7.20;;;1.40;99.90;;;;;;4973716;28;20039;-88
2024/01/06 02:47:05;;;;;;;13.25;7.30;;;1.50;99.90;;;;;;5005788;28;20033;-90
2024/01/06 02:49:30;;;;;;;12.85;7.60;;;1.50;99.90;;;;;;4960808;28;20041;-90
2024/01/06 02:51:56;;;;;;;12.98;7.05;;;1.40;99.90;;;;;;4974513;28;20038;-90
2024/01/06 02:54:21;;;;;;;11.52;6.57;;;3.20;99.90;;;;;;4976097;28;20041;-90
2024/01/06 02:56:47;;;;;;;12.13;6.60;;;1.40;99.90;;;;;;4990739;28;20590;-90
2024/01/06 02:59:13;;;;;;;12.18;7.32;;;3.10;99.90;;;;;;4974553;28;20038;-91
2024/01/06 03:01:39;;;;;;;12.75;6.55;;;;;;;;;;4972073;28;20053;-90
2024/01/06 03:04:04;;;;;;;11.45;6.00;;;1.40;99.90;;;;;;4987662;28;20046;-90
2024/01/06 03:06:30;;;;;;;11.95;6.57;;;1.60;99.90;;;;;;5005434;28;20037;-89
2024/01/06 03:08:56;;;;;;;11.07;5.97;;;1.50;99.90;;;;;;5005498;28;20034;-90
2024/01/06 03:11:22;;;;;;;11.77;6.40;;;1.30;99.90;;;;;;4974873;28;20038;-89
2024/01/06 03:13:48;;;;;;;11.77;6.38;;;1.50;99.90;;;;;;5004691;28;20340;-88
2024/01/06 03:16:14;;;;;;;13.18;6.60;;;1.30;99.90;;;;;;5017213;28;20042;-90
2024/01/06 03:18:39;;;;;;;12.70;6.03;;;1.30;99.90;;;;;;4990018;28;20407;-90
2024/01/06 03:21:05;;;;;;;11.13;5.63;;;1.30;99.90;;;;;;5016211;28;20053;-90
2024/01/06 03:23:31;;;;;;;11.48;6.38;;;2.50;99.90;;;;;;5006157;28;20034;-88
2024/01/06 03:25:57;;;;;;;11.30;6.32;;;1.30;99.90;;;;;;4990358;28;20053;-90
2024/01/06 03:28:22;;;;;;;11.07;6.03;;;1.60;99.90;;;;;;5000403;28;20046;-90
2024/01/06 03:30:48;;;;;;;12.23;6.43;;;3.30;99.90;;;;;;4972808;28;20040;-89
2024/01/06 03:33:14;;;;;;;11.40;6.03;;;2.20;99.90;;;;;;4989655;28;20087;-89
2024/01/06 03:35:39;;;;;;;12.00;6.55;;;1.40;99.90;;;;;;4970603;28;20052;-90
2024/01/06 03:38:05;;;;;;;11.82;6.40;;;1.40;99.90;;;;;;4992395;28;20586;-90
2024/01/06 03:40:31;;;;;;;12.20;6.53;;;2.60;99.90;;;;;;4989586;28;20276;-90
2024/01/06 03:42:56;;;;;;;12.20;6.90;;;1.20;99.90;;;;;;4991048;28;20089;-89
2024/01/06 03:45:22;;;;;;;13.60;7.35;;;2.90;99.90;;;;;;4988298;28;20108;-90
2024/01/06 03:47:48;;;;;;;12.88;7.20;;;1.20;99.90;;;;;;4971309;28;20116;-90
2024/01/06 03:50:13;;;;;;;12.73;6.90;;;1.40;99.90;;;;;;5005819;28;20096;-90
2024/01/06 03:52:39;;;;;;;14.93;7.47;;;1.30;99.90;;;;;;4991897;28;20045;-89
2024/01/06 03:55:05;;;;;;;11.88;6.65;;;2.00;99.90;;;;;;4989958;28;20049;-89
2024/01/06 03:57:31;;;;;;;12.60;7.53;;;1.40;99.90;;;;;;5001015;28;20581;-89
2024/01/06 03:59:57;;;;;;;13.00;7.43;;;2.20;99.90;;;;;;4987312;28;20041;-90
2024/01/06 04:02:23;;;;;;;13.00;7.10;;;2.60;99.90;;;;;;4989852;28;20038;-90
2024/01/06 04:04:49;;;;;;;13.02;7.35;;;2.70;99.90;;;;;;4990452;28;20037;-89
2024/01/06 04:07:15;;;;;;;13.52;7.85;;;1.40;99.90;;;;;;4955142;28;20034;-89
2024/01/06 04:09:43;;;;;;;14.77;7.78;;;3.10;99.90;;;;;;4972011;28;20657;-89
2024/01/06 04:12:09;;;;;;;12.65;7.57;;;1.40;99.90;;;;;;4972530;28;20496;-89
2024/01/06 04:14:35;;;;;;;14.30;8.30;;;2.90;99.90;;;;;;5005495;28;21362;-91
2024/01/06 04:17:00;;;;;;;13.88;8.02;;;1.20;99.90;;;;;;4987712;28;20038;-90
2024/01/06 04:19:26;;;;;;;13.60;7.57;;;1.30;99.90;;;;;;4988021;28;20045;-90
2024/01/06 04:21:52;;;;;;;12.88;7.57;;;1.40;99.90;;;;;;4991697;28;20041;-89
2024/01/06 04:24:18;;;;;;;13.70;7.65;;;2.50;99.90;;;;;;4973454;28;20036;-90
2024/01/06 04:26:44;;;;;;;12.95;7.60;;;1.40;99.90;;;;;;5005039;28;20058;-89
2024/01/06 04:29:11;;;;;;;14.25;7.75;;;1.20;99.90;;;;;;5002846;28;20061;-90
2024/01/06 04:31:37;;;;;;;16.35;7.60;;;1.20;99.90;;;;;;5005398;28;20053;-89
2024/01/06 04:34:03;;;;;;;14.55;7.43;;;1.20;99.90;;;;;;4972030;28;20026;-90
2024/01/06 04:36:29;;;;;;;12.88;7.95;;;1.20;99.90;;;;;;5003416;28;20044;-89
2024/01/06 04:38:55;;;;;;;13.40;8.00;;;1.30;99.90;;;;;;4970989;28;20044;-90
2024/01/06 04:41:21;;;;;;;12.90;7.57;;;1.40;99.90;;;;;;5003315;28;20118;-90
2024/01/06 04:43:47;;;;;;;13.15;7.97;;;1.40;99.90;;;;;;4990626;28;20517;-89
2024/01/06 04:46:13;;;;;;;13.95;8.27;;;1.30;99.90;;;;;;5004749;28;20124;-89
2024/01/06 04:48:41;;;;;;;17.42;7.93;;;1.20;99.90;;;;;;5003849;28;20137;-89
2024/01/06 04:51:09;;;;;;;12.57;7.35;;;2.10;99.90;;;;;;5004645;28;20026;-90
2024/01/06 04:53:36;;;;;;;12.43;7.60;;;3.00;99.90;;;;;;5005035;28;20049;-90
2024/01/06 04:56:02;;;;;;;12.70;6.95;;;2.00;99.90;;;;;;4989323;28;20037;-90
2024/01/06 04:58:27;;;;;;;15.02;7.75;;;1.40;99.90;;;;;;5005702;28;20034;-90
2024/01/06 05:00:53;;;;;;;14.02;8.05;;;1.20;99.90;;;;;;4987395;28;20611;-89
2024/01/06 05:03:19;;;;;;;13.18;7.28;;;1.40;99.90;;;;;;4956465;28;20034;-89
2024/01/06 05:05:45;;;;;;;13.45;8.02;;;1.20;99.90;;;;;;4985508;28;20105;-90
2024/01/06 05:08:10;;;;;;;12.25;7.35;;;1.40;99.90;;;;;;5004911;28;20034;-90
2024/01/06 05:10:36;;;;;;;13.00;7.47;;;1.30;99.90;;;;;;4972144;28;20042;-89
2024/01/06 05:13:02;;;;;;;12.68;7.13;;;1.20;99.90;;;;;;4989854;28;20042;-88
2024/01/06 05:15:27;;;;;;;13.43;7.80;;;1.50;99.90;;;;;;4972200;28;20407;-88
2024/01/06 05:17:53;;;;;;;12.93;7.55;;;1.40;99.90;;;;;;5007147;28;20076;-89
2024/01/06 05:20:19;;;;;;;15.18;7.57;;;1.20;99.90;;;;;;5020412;28;20045;-89
2024/01/06 05:22:44;;;;;;;12.52;7.63;;;1.20;99.90;;;;;;5002435;28;20046;-90
2024/01/06 05:25:10;;;;;;;13.60;7.78;;;1.50;99.90;;;;;;4986707;28;20152;-90
2024/01/06 05:27:36;;;;;;;13.65;7.60;;;2.90;99.90;;;;;;4971553;28;20081;-90
2024/01/06 05:30:02;;;;;;;13.57;7.53;;;1.30;99.90;;;;;;4990793;28;20066;-89
2024/01/06 05:32:28;;;;;;;13.82;7.70;;;1.40;99.90;;;;;;5015872;28;20061;-90
2024/01/06 05:34:53;;;;;;;12.10;6.65;;;1.20;99.90;;;;;;4973889;28;20058;-90
2024/01/06 05:37:19;;;;;;;11.68;6.68;;;1.50;99.90;;;;;;5018811;28;20042;-89
2024/01/06 05:39:45;;;;;;;11.98;6.63;;;1.30;99.90;;;;;;5003776;28;20311;-90
2024/01/06 05:42:15;;;;;;;13.38;6.82;;;2.90;99.90;;;;;;4985068;28;20487;-90
2024/01/06 05:44:41;;;;;;;11.80;6.72;;;1.30;99.90;;;;;;4986384;28;20038;-89
2024/01/06 05:47:08;;;;;;;11.95;6.90;;;1.40;99.90;;;;;;4986538;28;20044;-88
2024/01/06 05:49:33;;;;;;;11.80;7.10;;;1.50;99.90;;;;;;4970114;28;20034;-90
2024/01/06 05:51:59;;;;;;;14.45;7.10;;;2.00;99.90;;;;;;4971436;28;20589;-90
2024/01/06 05:54:25;;;;;;;12.80;7.43;;;1.50;99.90;;;;;;4968892;28;20150;-90
2024/01/06 05:56:50;;;;;;;11.77;6.50;;;1.30;99.90;;;;;;5004334;28;20042;-89
2024/01/06 05:59:16;;;;;;;10.85;6.47;;;2.10;99.90;;;;;;5020189;28;20057;-89
2024/01/06 06:01:43;;;;;;;13.40;7.03;;;1.30;99.90;;;;;;4986741;28;20042;-90
2024/01/06 06:04:09;;;;;;;11.82;7.05;;;1.40;99.90;;;;;;4988157;28;20035;-89
2024/01/06 06:06:35;;;;;;;11.80;6.68;;;1.30;99.90;;;;;;4972072;28;20677;-89
2024/01/06 06:09:01;;;;;;;11.88;6.60;;;1.30;99.90;;;;;;4985412;28;20038;-89
2024/01/06 06:11:27;;;;;;;13.45;6.22;;;1.30;99.90;;;;;;5003779;28;20045;-89
2024/01/06 06:13:52;;;;;;;13.10;7.05;;;1.40;99.90;;;;;;5003029;28;20538;-88
2024/01/06 06:16:18;;;;;;;11.80;6.60;;;1.40;99.90;;;;;;5004029;28;20038;-89
2024/01/06 06:18:44;;;;;;;12.18;6.97;;;1.30;99.90;;;;;;5003414;28;20487;-89
2024/01/06 06:21:10;;;;;;;13.32;6.80;;;1.50;99.90;;;;;;4987004;28;20173;-89
2024/01/06 06:23:35;;;;;;;14.43;7.18;;;1.40;99.90;;;;;;4987731;28;20080;-90
2024/01/06 06:26:06;;;;;;;12.85;7.13;;;1.30;99.90;;;;;;4969454;28;20200;-88
2024/01/06 06:28:32;;;;;;;14.00;7.50;;;2.60;99.90;;;;;;5018199;28;20034;-89
2024/01/06 06:30:58;;;;;;;13.07;7.22;;;1.30;99.90;;;;;;5004582;28;20045;-90
2024/01/06 06:33:23;;;;;;;12.68;7.47;;;2.90;99.90;;;;;;4984865;28;20542;-89
2024/01/06 06:35:49;;;;;;;13.43;7.25;;;1.50;99.90;;;;;;5002722;28;20053;-89
2024/01/06 06:38:14;;;;;;;12.00;6.70;;;2.30;99.90;;;;;;5002301;28;20123;-88
2024/01/06 06:40:40;;;;;;;13.95;7.97;;;1.30;99.90;;;;;;5000795;28;20046;-89
2024/01/06 06:43:06;;;;;;;12.40;7.28;;;1.40;99.90;;;;;;4986599;28;20452;-90
2024/01/06 06:45:32;;;;;;;13.30;7.53;;;1.60;99.90;;;;;;4985913;28;20395;-90
2024/01/06 06:47:58;;;;;;;12.80;7.05;;;2.40;99.90;;;;;;4971159;28;20038;-89
2024/01/06 06:50:24;;;;;;;14.40;7.60;;;2.50;99.90;;;;;;5002310;28;20053;-90
2024/01/06 06:52:49;;;;;;;13.82;7.95;;;1.50;99.90;;;;;;5003877;28;20124;-89
2024/01/06 06:55:15;;;;;;;12.27;7.00;;;1.30;99.90;;;;;;4982923;28;20049;-90
2024/01/06 06:57:40;;;;;;;13.27;7.85;;;1.40;99.90;;;;;;5004505;28;20054;-90
2024/01/06 07:00:09;;;;;;;14.00;7.65;;;1.40;99.90;;;;;;5014243;28;20041;-88
2024/01/06 07:02:35;;;;;;;13.23;7.70;;;1.30;99.90;;;;;;4988540;28;20053;-89
2024/01/06 07:05:01;;;;;;;13.30;7.97;;;;;;;;;;5018496;28;20399;-89
2024/01/06 07:07:27;;;;;;;13.77;7.93;;;1.40;99.90;;;;;;4970536;28;20096;-89
2024/01/06 07:09:53;;;;;;;14.80;8.32;;;1.60;99.90;;;;;;5012446;28;20496;-89
2024/01/06 07:12:19;;;;;;;13.15;8.20;;;2.70;99.90;;;;;;4991990;28;20697;-89
2024/01/06 07:14:45;;;;;;;13.80;8.00;;;2.50;99.90;;;;;;4975135;28;20077;-89
2024/01/06 07:17:10;;;;;;;13.38;8.10;;;1.40;99.90;;;;;;4990053;28;20081;-88
2024/01/06 07:19:38;;;;;;;12.80;7.90;;;1.60;99.90;;;;;;5006920;28;20042;-88
2024/01/06 07:22:05;;;;;;;13.43;7.90;;;2.50;99.90;;;;;;5022823;28;20056;-88
2024/01/06 07:24:30;;;;;;;14.63;7.60;;;1.40;99.90;;;;;;4975023;28;20077;-88
2024/01/06 07:26:56;;;;;;;12.68;7.72;;;3.10;99.90;;;;;;5004434;28;20100;-88
2024/01/06 07:29:22;;;;;;;12.88;7.90;;;1.70;99.90;;;;;;4990187;28;20046;-88
2024/01/06 07:31:47;;;;;;;14.35;8.77;;;1.50;99.90;;;;;;5019957;28;20461;-89
2024/01/06 07:34:13;;;;;;;14.90;9.18;;;1.40;99.90;;;;;;4988493;28;20033;-88
2024/01/06 07:36:39;;;;;;;13.80;8.13;;;1.60;99.90;;;;;;4991747;28;20026;-89
2024/01/06 07:39:05;;;;;;;14.65;8.85;;;2.50;99.90;;;;;;4974533;28;20037;-89
2024/01/06 07:41:32;;;;;;;14.50;9.38;;;2.70;99.90;;;;;;5038285;28;20037;-89
2024/01/06 07:43:58;;;;;;;14.98;9.77;;;1.50;99.90;;;;;;5036164;28;20092;-90
2024/01/06 07:46:24;;;;;;;14.88;9.60;;;1.70;99.90;;;;;;4986172;28;20534;-88
2024/01/06 07:48:49;;;;;;;15.15;10.50;;;2.60;99.90;;;;;;4964997;28;20042;-88
2024/01/06 07:51:15;;;;;;;15.13;9.77;;;3.50;99.90;;;;;;4971512;28;20042;-89
2024/01/06 07:53:42;;;;;;;16.67;10.15;;;1.60;99.90;;;;;;4989163;28;20050;-89
2024/01/06 07:56:08;;;;;;;15.88;10.23;;;1.50;99.90;;;;;;5036115;28;20649;-90
2024/01/06 07:58:34;;;;;;;16.85;11.13;;;1.70;99.90;;;;;;4975535;28;20052;-90
2024/01/06 08:00:59;;;;;;;17.25;10.20;;;1.60;99.90;;;;;;5015332;28;20034;-90
2024/01/06 08:03:25;;;;;;;15.98;10.65;;;2.30;99.90;;;;;;5003100;28;20518;-90
2024/01/06 08:05:51;;;;;;;16.27;10.52;;;3.50;99.90;;;;;;5003292;28;20042;-90
2024/01/06 08:08:18;;;;;;;18.20;11.30;;;1.90;99.90;;;;;;4987410;28;20561;-90
2024/01/06 08:10:44;;;;;;;18.15;11.43;;;1.70;99.90;;;;;;4985944;28;20096;-88
2024/01/06 08:13:10;;;;;;;17.55;11.18;;;1.70;99.90;;;;;;5004905;28;20038;-89
2024/01/06 08:15:35;;;;;;;17.65;11.70;;;1.50;99.90;;;;;;4972892;28;20503;-89
2024/01/06 08:18:01;;;;;;;16.75;11.02;;;3.00;99.90;;;;;;4971270;28;20042;-89
2024/01/06 08:20:27;;;;;;;17.02;11.75;;;3.10;99.90;;;;;;4971107;28;20095;-90
2024/01/06 08:22:53;;;;;;;17.70;11.20;;;1.80;99.90;;;;;;4968217;28;20034;-90
2024/01/06 08:25:18;;;;;;;17.90;11.70;;;1.70;99.90;;;;;;5005493;28;20034;-89
2024/01/06 08:27:44;;;;;;;17.00;11.18;;;1.60;99.90;;;;;;5003801;28;20062;-88
2024/01/06 08:30:11;;;;;;;16.20;10.70;;;1.90;99.90;;;;;;4975053;28;20583;-88
2024/01/06 08:32:37;;;;;;;16.75;10.68;;;1.70;99.90;;;;;;4970787;28;20045;-88
2024/01/06 08:35:03;;;;;;;15.15;9.75;;;3.70;99.90;;;;;;4978189;28;20045;-89
2024/01/06 08:37:29;;;;;;;13.95;8.77;;;1.70;99.90;;;;;;5022379;28;20121;-90
2024/01/06 08:39:55;;;;;;;16.63;10.20;;;3.30;99.90;;;;;;5005507;28;20085;-89
2024/01/06 08:42:21;;;;;;;16.20;10.43;;;3.30;99.90;;;;;;4987584;28;20882;-89
2024/01/06 08:44:47;;;;;;;17.33;11.00;;;1.90;99.90;;;;;;4973131;28;20054;-90
2024/01/06 08:47:13;;;;;;;17.77;11.32;;;1.80;99.90;;;;;;4974585;28;20035;-89
2024/01/06 08:49:38;;;;;;;17.55;10.82;;;3.80;99.90;;;;;;5007916;28;20081;-89
2024/01/06 08:52:04;;;;;;;17.67;11.48;;;1.70;99.90;;;;;;4957311;28;20070;-89
2024/01/06 08:54:31;;;;;;;17.50;11.60;;;1.80;99.90;;;;;;4971435;28;20050;-88
2024/01/06 08:56:57;;;;;;;17.27;11.18;;;1.70;99.90;;;;;;4987279;28;20121;-89
2024/01/06 08:59:23;;;;;;;16.58;10.88;;;1.60;99.90;;;;;;5006269;28;20124;-89
2024/01/06 09:01:48;;;;;;;17.25;10.82;;;2.30;99.90;;;;;;4971298;28;20037;-88
2024/01/06 09:04:14;;;;;;;16.13;10.02;;;3.50;99.90;;;;;;4987897;28;20456;-88
2024/01/06 09:06:41;;;;;;;17.58;11.10;;;1.70;99.90;;;;;;4986413;28;20120;-90
2024/01/06 09:09:08;;;;;;;15.57;10.70;;;3.40;99.90;;;;;;4975551;28;20033;-88
2024/01/06 09:11:35;;;;;;;16.08;10.48;;;1.70;99.90;;;;;;4988845;28;20065;-88
2024/01/06 09:14:01;;;;;;;16.98;11.23;;;1.70;99.90;;;;;;4987842;28;20292;-88
2024/01/06 09:16:26;;;;;;;16.70;10.80;;;1.80;99.90;;;;;;4984603;28;20121;-88
2024/01/06 09:18:52;;;;;;;16.33;10.65;;;1.80;99.90;;;;;;4971237;28;20051;-87
2024/01/06 09:21:18;;;;;;;17.02;10.48;;;1.80;99.90;;;;;;4985889;28;20033;-88
2024/01/06 09:23:43;;;;;;;18.05;10.73;;;1.80;99.90;;;;;;5002987;28;20073;-87
2024/01/06 09:26:10;;;;;;;16.30;10.38;;;1.80;99.90;;;;;;4955143;28;20049;-88
2024/01/06 09:28:35;;;;;;;16.52;10.85;;;1.90;99.90;;;;;;4987651;28;20038;-88
2024/01/06 09:31:01;;;;;;;15.30;9.65;;;3.70;99.90;;;;;;4970990;28;20042;-88
2024/01/06 09:33:27;;;;;;;17.05;9.98;;;1.70;99.90;;;;;;4958161;28;20073;-88
2024/01/06 09:35:53;;;;;;;15.98;9.65;;;2.40;99.90;;;;;;4989572;28;20121;-87
2024/01/06 09:38:19;;;;;;;15.88;9.77;;;1.90;99.90;;;;;;5004428;28;20129;-88
2024/01/06 09:40:45;;;;;;;17.75;9.88;;;1.80;99.90;;;;;;5019120;28;20534;-88
2024/01/06 09:43:11;;;;;;;16.10;10.20;;;1.90;99.90;;;;;;5000005;28;20042;-87
2024/01/06 09:45:39;;;;;;;16.13;9.75;;;3.00;99.90;;;;;;5003053;28;20088;-88
2024/01/06 09:48:14;;;;;;;15.18;9.20;;;1.90;99.90;;;;;;4984673;28;20402;-88
2024/01/06 09:50:46;;;;;;;15.00;8.63;;;3.00;99.90;;;;;;4986504;28;20038;-86
2024/01/06 09:53:13;;;;;;;15.73;9.30;;;1.90;99.90;;;;;;5035700;28;20054;-87
2024/01/06 09:55:39;;;;;;;16.17;9.40;;;3.60;99.90;;;;;;5032139;28;20066;-87
2024/01/06 09:58:08;;;;;;;16.35;8.73;;;1.90;99.90;;;;;;5002340;28;20068;-87
2024/01/06 10:00:34;;;;;;;15.48;9.15;;;3.30;99.90;;;;;;4988106;28;21215;-87
2024/01/06 10:03:00;;;;;;;16.02;9.23;;;3.10;99.90;;;;;;4986161;28;20582;-87
2024/01/06 10:05:25;;;;;;;14.80;9.73;;;1.80;99.90;;;;;;5001908;28;20044;-87
2024/01/06 10:07:52;;;;;;;13.88;8.68;;;1.80;99.90;;;;;;5020970;28;20231;-87
2024/01/06 10:10:19;;;;;;;14.35;9.35;;;1.90;99.90;;;;;;5004633;28;20065;-88
2024/01/06 10:12:46;;;;;;;14.13;8.50;;;1.90;99.90;;;;;;4986507;28;20128;-88
2024/01/06 10:15:12;;;;;;;14.48;8.25;;;1.80;99.90;;;;;;4986328;28;20125;-87
2024/01/06 10:17:41;;;;;;;13.65;8.52;;;1.90;99.90;;;;;;4982454;28;20038;-87
2024/01/06 10:20:11;;;;;;;12.85;7.43;;;1.90;99.90;;;;;;4991412;28;20069;-86
2024/01/06 10:22:38;;;;;;;12.80;7.78;;;3.70;99.90;;;;;;4972189;28;20196;-87
2024/01/06 10:25:08;;;;;;;12.68;7.07;;;2.00;99.90;;;;;;5016934;28;20044;-87
2024/01/06 10:27:41;;;;;;;11.63;6.47;;;2.00;99.90;;;;;;5001496;28;20392;-86
2024/01/06 10:30:08;;;;;;;10.93;6.32;;;1.90;99.90;;;;;;5014355;28;20076;-86
2024/01/06 10:32:36;;;;;;;12.18;6.65;;;1.80;99.90;;;;;;4981125;28;20084;-86
2024/01/06 10:35:03;;;;;;;11.55;6.35;;;3.30;99.90;;;;;;5000739;28;20041;-87
2024/01/06 10:37:29;;;;;;;11.82;6.50;;;3.80;99.90;;;;;;4947217;28;20423;-86
2024/01/06 10:40:09;;;;;;;11.80;6.00;;;1.80;99.90;;;;;;4978130;28;20045;-86
2024/01/06 10:42:36;;;;;;;12.25;6.90;;;1.80;99.90;;;;;;5014458;28;20447;-86
2024/01/06 10:45:02;;;;;;;11.23;6.32;;;1.90;99.90;;;;;;5002502;28;20073;-88
2024/01/06 10:47:31;;;;;;;11.70;6.53;;;2.70;99.90;;;;;;4958974;28;20112;-87
2024/01/06 10:49:59;;;;;;;11.85;6.50;;;2.00;99.90;;;;;;5004297;28;20076;-86
2024/01/06 10:52:27;;;;;;;11.55;6.32;;;2.00;99.90;;;;;;4990067;28;20481;-87
2024/01/06 10:54:55;;;;;;;11.30;6.40;;;3.80;99.90;;;;;;5001770;28;20491;-86
2024/01/06 10:57:21;;;;;;;11.10;6.50;;;1.90;99.90;;;;;;4969821;28;20072;-86
2024/01/06 10:59:50;;;;;;;12.30;6.93;;;3.30;99.90;;;;;;5003701;28;20165;-86
2024/01/06 11:02:18;;;;;;;10.40;5.97;;;1.90;99.90;;;;;;5001517;28;20153;-87
2024/01/06 11:04:50;;;;;;;10.55;5.80;;;1.90;99.90;;;;;;5018907;28;20391;-87
2024/01/06 11:07:19;;;;;;;11.93;7.25;;;2.00;99.90;;;;;;5005817;28;20046;-87
2024/01/06 11:09:53;;;;;;;10.60;6.00;;;3.40;99.90;;;;;;5022302;28;20410;-87
2024/01/06 11:12:19;;;;;;;10.75;6.05;;;2.80;99.90;;;;;;5019341;28;20046;-87
2024/01/06 11:14:45;;;;;;;12.85;6.95;;;3.20;99.90;;;;;;5006941;28;20411;-86
2024/01/06 11:17:11;;;;;;;13.65;6.88;;;3.80;99.90;;;;;;4976231;28;20042;-87
2024/01/06 11:19:37;;;;;;;11.18;6.57;;;2.00;99.90;;;;;;5040487;28;20394;-86
2024/01/06 11:22:20;;;;;;;11.30;6.47;;;2.10;99.90;;;;;;5004970;28;20049;-86
2024/01/06 11:24:55;;;;;;;13.10;7.13;;;2.90;99.90;;;;;;5004903;28;20046;-86
2024/01/06 11:27:28;;;;;;;11.15;6.32;;;2.00;99.90;;;;;;5007904;28;20058;-86
2024/01/06 11:29:57;;;;;;;10.90;5.72;;;3.50;99.90;;;;;;5008381;28;20066;-86
2024/01/06 11:32:29;;;;;;;10.77;5.85;;;3.00;99.90;;;;;;4992199;28;20045;-86
2024/01/06 11:35:04;;;;;;;12.00;6.85;;;2.10;99.90;;;;;;5023826;28;20112;-87
2024/01/06 11:37:41;;;;;;;12.00;7.05;;;2.00;99.90;;;;;;5006474;28;20116;-93
2024/01/06 11:40:21;;;;;;;12.43;6.93;;;2.00;99.90;;;;;;5010426;28;20054;-94
2024/01/06 11:42:48;;;;;;;11.68;6.50;;;3.40;99.90;;;;;;4989980;28;20034;-89
2024/01/06 11:45:17;;;;;;;11.40;6.80;;;3.80;99.90;;;;;;5023057;28;20030;-94
2024/01/06 11:47:48;;;;;;;12.90;7.15;;;2.10;99.90;;;;;;5009378;28;20042;-89
2024/01/06 11:50:14;;;;;;;12.32;6.68;;;2.00;99.90;;;;;;5020707;28;20041;-88
2024/01/06 11:52:40;;;;;;;11.77;6.50;;;2.10;99.90;;;;;;5003533;28;20451;-85
2024/01/06 11:55:10;;;;;;;11.77;6.97;;;1.90;99.90;;;;;;5001639;28;20052;-86
2024/01/06 11:57:35;;;;;;;12.10;6.38;;;2.00;99.90;;;;;;4989920;28;20053;-86
2024/01/06 12:00:04;;;;;;;12.25;7.00;;;2.80;99.90;;;;;;5002973;28;20053;-88
2024/01/06 12:02:29;;;;;;;10.75;6.18;;;2.00;99.90;;;;;;5032653;28;20125;-87
2024/01/06 12:04:55;;;;;;;11.43;6.50;;;1.90;99.90;;;;;;4992089;28;20140;-87
2024/01/06 12:07:24;;;;;;;11.43;6.78;;;1.90;99.90;;;;;;5020943;28;20040;-87
2024/01/06 12:10:00;;;;;;;11.73;6.45;;;1.90;99.90;;;;;;5002745;28;20038;-87
2024/01/06 12:12:25;;;;;;;11.98;6.47;;;3.20;99.90;;;;;;4983944;28;20054;-85
2024/01/06 12:14:51;;;;;;;10.93;6.00;;;2.00;99.90;;;;;;4988008;28;20046;-86
2024/01/06 12:17:17;;;;;;;11.27;6.00;;;3.40;99.90;;;;;;4972198;28;20494;-85
2024/01/06 12:19:42;;;;;;;11.23;6.30;;;3.10;99.90;;;;;;5002826;28;20474;-85
2024/01/06 12:22:16;;;;;;;12.25;6.40;;;2.00;99.90;;;;;;4990929;28;20048;-85
2024/01/06 12:24:42;;;;;;;;;;;1.90;99.90;;;;;;5021783;28;20136;-87
2024/01/06 12:27:12;;;;;;;11.15;5.82;;;3.50;99.90;;;;;;4989309;28;19922;-86
2024/01/06 12:29:40;;;;;;;10.90;6.07;;;1.80;99.90;;;;;;5006278;28;20045;-86
2024/01/06 12:32:06;;;;;;;11.73;6.80;;;2.40;99.90;;;;;;5006444;28;20577;-86
2024/01/06 12:34:32;;;;;;;10.95;6.00;;;3.40;99.90;;;;;;5003264;28;20077;-86
2024/01/06 12:36:58;;;;;;;11.25;6.63;;;1.80;99.90;;;;;;4970813;28;20030;-87
2024/01/06 12:39:28;;;;;;;11.00;5.85;;;3.10;99.90;;;;;;4990226;28;20045;-86
2024/01/06 12:41:54;;;;;;;10.95;6.07;;;1.90;99.90;;;;;;5017683;28;20290;-86